Grays River, Washington
Current Conditions -  °F | °C
As of 5:55 PM on Sunday 21 Dec 2014 (Local Time) from KAST Reporting Station
Overcast Overcast  
Wind Chill: 54°   Ceiling: 3100
Heat Index: 54°   Visibility: 7mi
Dew Point: 51°   Wind: 10mph
Humidity: 90%   Direction: 250°WSW
Pressure: 30.11"   Gusts: NA
Location:  46.36°N, 123.61°W
Report Text: KAST 220155Z AUTO 25009KT 7SM FEW010 BKN031 OVC110 12/11 A3011 RMK AO2 SLP197 T01220106 $
Loading
Personal Weather Stations






























Interactive Weather Map New forecast layout! Learn more

10-Day Weather Forecast

Advertisements
Track Severe Weather on mobile